首页
METAR-TAF:

METAR-TAF

机场 :

索菲亞機場

索菲亞, 保加利亚

纬度: 42-39N, 经度: 023-23E, 海拔: 586米

当前天气观测

该预报发布于29分钟前的22:00 UTC
风速9节,风向西
温度 14°C
湿度 67%
气压 1025 hPa
能见度10公里或以上

METAR: LBSF 132200Z AUTO 27009KT 9999 NCD 14/08 Q1025 NOSIG

时间: 01:29 (22:29 UTC)

预报

该预报发布于5小时和29分钟前的17:00 UTC
预报有效从13日的 18点(UTC)到 14日的 18点(UTC)
风速10节,风向西转西北
能见度10公里或以上
散云层高于6000英尺
成为
从 13日的 19点(UTC)到 13日的 21点(UTC)
风速4节,风向多变
短暂存在
从 14日的 01点(UTC)到 14日的 05点(UTC)
能見度: 3000
轻雾
成为
从 14日的 11点(UTC)到 14日的 13点(UTC)
风速10节,风向西转西北

TAF: LBSF 131700Z 1318/1418 29010KT 9999 SCT060 BECMG 1319/1321 VRB04KT TEMPO 1401/1405 3000 BR BECMG 1411/1413 30010KT

超过4000个机场的气象观测和天气预报(METAR&TAF报告)。

可查询的气象台以黄色和红色小点在地图上表示。

将鼠标移到小点上方,可查看气象台名称。

然后点击查看天气观测和预报。

如需切换地图:点击带黑十字的绿色按钮放大地图;点击带横线的绿色按钮缩小地图;或者点击绿色箭头查看邻近地区的地图。


METAR-TAF: